createdAt,value
2018-09-10T00:01:15.177Z,71.80
2018-09-10T00:03:43.792Z,72.60
2018-09-10T00:06:12.200Z,72.50
2018-09-10T00:08:40.928Z,72.00
2018-09-10T00:11:09.366Z,71.90
2018-09-10T00:13:37.896Z,71.80
2018-09-10T00:16:06.468Z,72.10
2018-09-10T00:18:35.072Z,72.60
2018-09-10T00:21:03.574Z,73.20
2018-09-10T00:23:32.166Z,74.10
2018-09-10T00:26:01.460Z,74.20
2018-09-10T00:28:29.945Z,73.20
2018-09-10T00:30:58.378Z,74.70
2018-09-10T00:40:25.839Z,73.40
2018-09-10T00:42:54.323Z,73.70
2018-09-10T00:45:22.869Z,73.90
2018-09-10T00:47:51.348Z,75.00
2018-09-10T00:50:19.918Z,74.80
2018-09-10T00:52:48.434Z,74.70
2018-09-10T00:55:17.866Z,74.60
2018-09-10T00:57:47.437Z,74.40
2018-09-10T01:00:16.534Z,74.10
2018-09-10T01:02:45.363Z,74.30
2018-09-10T01:05:13.998Z,74.40
2018-09-10T01:07:45.252Z,74.40
2018-09-10T01:10:14.021Z,74.50
2018-09-10T01:12:42.945Z,74.40
2018-09-10T01:15:11.438Z,74.20
2018-09-10T01:17:40.054Z,74.00
2018-09-10T01:20:08.530Z,74.00
2018-09-10T01:22:37.961Z,74.00
2018-09-10T01:25:06.464Z,73.90
2018-09-10T01:27:35.067Z,74.10
2018-09-10T01:30:03.594Z,74.30
2018-09-10T01:32:32.154Z,74.10
2018-09-10T01:35:03.738Z,73.90
2018-09-10T01:37:33.310Z,74.00
2018-09-10T01:40:02.335Z,73.60
2018-09-10T01:42:31.207Z,73.90
2018-09-10T01:45:00.438Z,74.30
2018-09-10T01:47:29.037Z,73.90
2018-09-10T01:49:57.499Z,74.00
2018-09-10T01:52:27.466Z,74.70
2018-09-10T01:54:55.928Z,75.50
2018-09-10T01:57:24.532Z,75.60
2018-09-10T01:59:52.970Z,76.10
2018-09-10T02:02:22.653Z,76.40
2018-09-10T02:04:51.113Z,77.00
2018-09-10T02:07:19.582Z,76.70
2018-09-10T02:09:48.098Z,77.10
2018-09-10T02:12:23.053Z,76.40
2018-09-10T02:14:51.510Z,75.60
2018-09-10T02:17:19.987Z,77.00
2018-09-10T02:19:48.434Z,76.90
2018-09-10T02:22:17.661Z,77.30
2018-09-10T02:24:46.655Z,77.10
2018-09-10T02:27:15.678Z,77.60
2018-09-10T02:29:44.281Z,78.30
2018-09-10T02:32:12.766Z,78.40
2018-09-10T02:34:41.203Z,78.80
2018-09-10T02:37:09.842Z,79.40
2018-09-10T02:39:38.256Z,79.20
2018-09-10T02:42:07.875Z,78.40
2018-09-10T02:44:36.295Z,78.80
2018-09-10T02:47:05.174Z,78.20
2018-09-10T02:49:33.574Z,77.20
2018-09-10T02:52:03.360Z,77.40
2018-09-10T02:54:31.867Z,77.10
2018-09-10T02:57:00.467Z,78.10
2018-09-10T02:59:28.890Z,77.90
2018-09-10T03:01:58.496Z,78.10
2018-09-10T03:04:26.899Z,76.60
2018-09-10T03:06:55.477Z,76.10
2018-09-10T03:09:23.967Z,77.20
2018-09-10T03:11:52.506Z,78.60
2018-09-10T03:14:20.929Z,78.10
2018-09-10T03:16:49.528Z,78.40
2018-09-10T03:19:17.972Z,79.40
2018-09-10T03:21:47.042Z,78.30
2018-09-10T03:24:15.956Z,77.90
2018-09-10T03:26:45.000Z,77.40
2018-09-10T03:29:13.422Z,78.70
2018-09-10T03:31:42.082Z,78.00
2018-09-10T03:34:10.529Z,77.50
2018-09-10T03:36:39.157Z,78.30
2018-09-10T03:39:08.766Z,78.30
2018-09-10T03:41:37.309Z,77.70
2018-09-10T03:44:05.771Z,76.70
2018-09-10T03:46:34.333Z,78.10
2018-09-10T03:49:02.779Z,77.10
2018-09-10T03:51:31.441Z,77.40
2018-09-10T03:53:59.950Z,77.30
2018-09-10T03:56:28.493Z,78.80
2018-09-10T03:58:57.070Z,80.20
2018-09-10T04:01:25.636Z,79.30
2018-09-10T04:03:54.119Z,78.80
2018-09-10T04:06:22.696Z,78.70
2018-09-10T04:08:51.171Z,78.90
2018-09-10T04:11:19.687Z,78.30
2018-09-10T04:13:48.355Z,77.30
2018-09-10T04:16:17.459Z,77.40
2018-09-10T04:18:47.299Z,77.10
2018-09-10T04:21:16.679Z,77.20
2018-09-10T04:23:45.101Z,76.90
2018-09-10T04:26:14.256Z,77.50
2018-09-10T04:28:42.766Z,78.60
2018-09-10T04:31:11.440Z,79.70
2018-09-10T04:33:39.967Z,80.00
2018-09-10T04:36:08.575Z,80.70
2018-09-10T04:38:37.492Z,81.10
2018-09-10T04:41:06.168Z,80.10
2018-09-10T04:43:34.641Z,79.60
2018-09-10T04:46:03.440Z,80.00
2018-09-10T04:48:31.994Z,80.40
2018-09-10T04:51:00.727Z,80.00
2018-09-10T04:53:29.165Z,80.00
2018-09-10T04:55:57.749Z,80.90
2018-09-10T04:58:26.403Z,80.50
2018-09-10T05:00:55.024Z,80.20
2018-09-10T05:03:23.567Z,80.60
2018-09-10T05:05:52.140Z,80.10
2018-09-10T05:08:20.580Z,79.50
2018-09-10T05:10:49.123Z,78.60
2018-09-10T05:13:18.002Z,78.40
2018-09-10T05:15:46.541Z,78.70
2018-09-10T05:18:15.016Z,78.30
2018-09-10T05:20:43.508Z,78.60
2018-09-10T05:23:12.038Z,78.10
2018-09-10T05:25:40.482Z,78.00
2018-09-10T05:28:08.894Z,78.00
2018-09-10T05:30:37.620Z,78.50
2018-09-10T05:33:06.046Z,77.90
2018-09-10T05:35:34.593Z,77.80
2018-09-10T05:38:03.087Z,78.50
2018-09-10T05:40:31.553Z,79.80
2018-09-10T05:43:00.057Z,79.30
2018-09-10T05:45:28.766Z,79.50
2018-09-10T05:47:57.254Z,79.40
2018-09-10T05:50:25.707Z,79.20
2018-09-10T05:52:54.191Z,80.00
2018-09-10T05:55:22.802Z,80.80
2018-09-10T05:57:51.552Z,80.60
2018-09-10T06:00:20.512Z,80.20
2018-09-10T06:02:48.953Z,80.70
2018-09-10T06:05:18.500Z,80.90
2018-09-10T06:07:47.391Z,81.00
2018-09-10T06:10:16.189Z,78.90
2018-09-10T06:12:44.673Z,78.40
2018-09-10T06:15:13.164Z,78.10
2018-09-10T06:17:41.597Z,78.30
2018-09-10T06:20:10.086Z,76.80
2018-09-10T06:22:38.518Z,76.50
2018-09-10T06:25:07.015Z,77.00
2018-09-10T06:27:35.402Z,76.90
2018-09-10T06:30:04.116Z,76.30
2018-09-10T06:32:32.552Z,76.20
2018-09-10T06:35:01.057Z,76.60
2018-09-10T06:37:29.526Z,76.70
2018-09-10T06:39:58.068Z,77.40
2018-09-10T06:42:26.530Z,78.50
2018-09-10T06:44:55.019Z,78.30
2018-09-10T06:47:23.447Z,78.60
2018-09-10T06:49:51.928Z,78.30
2018-09-10T06:52:20.408Z,79.20
2018-09-10T06:54:49.884Z,80.20
2018-09-10T06:57:18.290Z,79.40
2018-09-10T06:59:47.321Z,79.40
2018-09-10T07:02:15.834Z,79.40
2018-09-10T07:04:44.428Z,79.90
2018-09-10T07:07:12.866Z,80.10
2018-09-10T07:09:41.285Z,79.70
2018-09-10T07:12:09.699Z,80.00
2018-09-10T07:14:38.231Z,80.00
2018-09-10T07:17:06.712Z,81.30
2018-09-10T07:19:35.247Z,80.00
2018-09-10T07:22:03.989Z,80.00
2018-09-10T07:24:32.821Z,80.10
2018-09-10T07:27:01.237Z,80.40
2018-09-10T07:29:29.895Z,79.90
2018-09-10T07:31:58.299Z,80.10
2018-09-10T07:34:26.867Z,80.30
2018-09-10T07:36:55.543Z,81.40
2018-09-10T07:39:24.093Z,81.40
2018-09-10T07:41:52.568Z,81.00
2018-09-10T07:44:21.113Z,78.70
2018-09-10T07:46:49.712Z,78.80
2018-09-10T07:49:19.809Z,77.50
2018-09-10T07:51:48.889Z,76.80
2018-09-10T07:54:17.537Z,76.60
2018-09-10T07:56:46.011Z,75.50
2018-09-10T07:59:14.867Z,76.30
2018-09-10T08:01:43.259Z,72.70
2018-09-10T08:04:11.835Z,73.40
2018-09-10T08:06:40.310Z,74.20
2018-09-10T08:09:09.803Z,73.00
2018-09-10T08:11:38.324Z,74.00
2018-09-10T08:14:07.003Z,74.10
2018-09-10T08:16:35.571Z,74.20
2018-09-10T08:19:04.276Z,74.50
2018-09-10T08:21:32.731Z,75.70
2018-09-10T08:24:01.331Z,75.50
2018-09-10T08:26:29.853Z,75.70
2018-09-10T08:28:58.399Z,75.00
2018-09-10T08:31:27.064Z,74.50
2018-09-10T08:33:55.964Z,74.50
2018-09-10T08:36:24.397Z,74.80
2018-09-10T08:38:52.897Z,73.80
2018-09-10T08:41:21.320Z,74.50
2018-09-10T08:43:49.831Z,74.80
2018-09-10T08:46:19.316Z,74.00
2018-09-10T08:48:48.240Z,74.50
2018-09-10T08:51:16.911Z,74.30
2018-09-10T08:53:45.367Z,73.80
2018-09-10T08:56:14.012Z,74.10
2018-09-10T08:58:42.476Z,73.50
2018-09-10T09:01:10.892Z,74.10
2018-09-10T09:03:39.382Z,73.60
2018-09-10T09:06:08.289Z,73.40
2018-09-10T09:08:36.924Z,74.40
2018-09-10T09:11:05.417Z,74.20
2018-09-10T09:13:33.838Z,74.70
2018-09-10T09:16:02.317Z,74.60
2018-09-10T09:18:30.812Z,74.70
2018-09-10T09:20:59.865Z,74.10
2018-09-10T09:23:28.417Z,72.70
2018-09-10T09:25:57.126Z,71.50
2018-09-10T09:28:25.564Z,73.40
2018-09-10T09:30:53.969Z,73.00
2018-09-10T09:33:22.449Z,72.50
2018-09-10T09:35:56.193Z,73.10
2018-09-10T09:38:29.927Z,69.80
2018-09-10T09:41:03.846Z,70.70
2018-09-10T09:43:37.701Z,67.20
2018-09-10T09:46:07.655Z,70.00
2018-09-10T09:48:36.224Z,71.00
2018-09-10T09:51:04.925Z,69.80
2018-09-10T09:53:33.877Z,68.00
2018-09-10T09:56:02.345Z,70.20
2018-09-10T09:58:31.221Z,70.70
2018-09-10T10:01:05.779Z,69.60
2018-09-10T10:03:39.634Z,69.70
2018-09-10T10:06:08.189Z,69.10
2018-09-10T10:08:36.913Z,69.10
2018-09-10T10:11:05.423Z,67.40
2018-09-10T10:13:34.085Z,62.40
2018-09-10T10:16:02.573Z,64.80
2018-09-10T10:18:31.123Z,63.00
2018-09-10T10:21:00.150Z,62.80
2018-09-10T10:23:29.603Z,64.80
2018-09-10T10:25:58.464Z,60.00
2018-09-10T10:28:27.049Z,61.60
2018-09-10T10:30:55.827Z,63.60
2018-09-10T10:33:25.373Z,62.20
2018-09-10T10:35:53.818Z,63.40
2018-09-10T10:38:22.342Z,59.80
2018-09-10T10:40:50.890Z,60.00
2018-09-10T10:43:19.421Z,63.00
2018-09-10T10:45:47.848Z,59.90
2018-09-10T10:48:16.400Z,60.40
2018-09-10T10:50:44.839Z,61.60
2018-09-10T10:53:13.335Z,62.60
2018-09-10T10:55:41.767Z,61.10
2018-09-10T10:58:10.304Z,60.00
2018-09-10T11:00:38.750Z,59.90
2018-09-10T11:03:07.267Z,61.40
2018-09-10T11:05:35.765Z,58.70
2018-09-10T11:08:04.405Z,60.40
2018-09-10T11:10:32.886Z,58.00
2018-09-10T11:13:01.380Z,59.10
2018-09-10T11:15:29.806Z,56.90
2018-09-10T11:17:58.350Z,59.20
2018-09-10T11:20:26.753Z,58.70
2018-09-10T11:22:56.346Z,57.40
2018-09-10T11:25:24.731Z,57.30
2018-09-10T11:27:53.205Z,59.30
2018-09-10T11:30:21.841Z,58.10
2018-09-10T11:32:51.376Z,56.00
2018-09-10T11:35:20.611Z,55.70
2018-09-10T11:37:49.959Z,54.80
2018-09-10T11:40:19.116Z,54.80
2018-09-10T11:42:47.805Z,57.80
2018-09-10T11:45:16.204Z,58.90
2018-09-10T11:47:44.702Z,57.20
2018-09-10T11:50:13.120Z,57.40
2018-09-10T11:52:41.520Z,54.80
2018-09-10T11:55:09.974Z,58.60
2018-09-10T11:57:38.451Z,51.90
2018-09-10T12:00:07.292Z,56.20
2018-09-10T12:02:35.730Z,52.50
2018-09-10T12:05:04.238Z,55.50
2018-09-10T12:07:32.714Z,54.70
2018-09-10T12:10:01.518Z,53.80
2018-09-10T12:12:29.922Z,52.30
2018-09-10T12:14:58.358Z,55.10
2018-09-10T12:17:26.936Z,55.20
2018-09-10T12:19:55.410Z,54.50
2018-09-10T12:22:24.260Z,54.70
2018-09-10T12:24:52.665Z,51.90
2018-09-10T12:27:21.203Z,52.60
2018-09-10T12:29:50.720Z,54.40
2018-09-10T12:32:19.339Z,54.10
2018-09-10T12:34:48.025Z,54.10
2018-09-10T12:37:16.517Z,54.80
2018-09-10T12:39:44.998Z,54.30
2018-09-10T12:42:14.557Z,52.90
2018-09-10T12:44:42.977Z,53.70
2018-09-10T12:47:11.431Z,54.90
2018-09-10T12:49:39.933Z,56.20
2018-09-10T12:52:09.402Z,56.00
2018-09-10T12:54:37.815Z,56.50
2018-09-10T12:57:07.128Z,56.20
2018-09-10T12:59:35.534Z,56.90
2018-09-10T13:02:04.046Z,56.30
2018-09-10T13:04:32.816Z,56.50
2018-09-10T13:07:01.376Z,56.80
2018-09-10T13:09:29.752Z,56.00
2018-09-10T13:11:58.323Z,53.90
2018-09-10T13:14:26.710Z,55.60
2018-09-10T13:16:55.284Z,55.60
2018-09-10T13:19:23.665Z,56.30
2018-09-10T13:21:52.170Z,56.10
2018-09-10T13:24:21.726Z,55.70
2018-09-10T13:26:50.261Z,55.40
2018-09-10T13:29:19.361Z,55.10
2018-09-10T13:31:47.857Z,55.20
2018-09-10T13:34:16.265Z,54.40
2018-09-10T13:36:44.827Z,55.20
2018-09-10T13:39:13.392Z,56.80
2018-09-10T13:41:41.864Z,55.40
2018-09-10T13:44:10.272Z,55.20
2018-09-10T13:46:38.787Z,55.50
2018-09-10T13:49:07.204Z,55.90
2018-09-10T13:51:35.675Z,54.50
2018-09-10T13:54:04.066Z,54.40
2018-09-10T13:56:32.745Z,55.00
2018-09-10T13:59:01.107Z,55.00
2018-09-10T14:01:29.580Z,53.30
2018-09-10T14:03:58.021Z,54.50
2018-09-10T14:06:26.459Z,54.80
2018-09-10T14:08:56.462Z,54.60
2018-09-10T14:11:26.053Z,54.80
2018-09-10T14:13:54.470Z,53.90
2018-09-10T14:16:22.876Z,55.00
2018-09-10T14:18:52.038Z,53.60
2018-09-10T14:21:21.202Z,53.60
2018-09-10T14:23:49.794Z,54.30
2018-09-10T14:26:19.142Z,53.70
2018-09-10T14:28:47.577Z,54.10
2018-09-10T14:31:16.063Z,54.30
2018-09-10T14:33:44.486Z,54.40
2018-09-10T14:36:13.007Z,53.20
2018-09-10T14:38:41.658Z,53.80
2018-09-10T14:41:10.095Z,54.30
2018-09-10T14:43:38.547Z,53.60
2018-09-10T14:46:07.134Z,53.50
2018-09-10T14:48:35.564Z,54.60
2018-09-10T14:51:04.184Z,52.90
2018-09-10T14:53:32.935Z,54.30
2018-09-10T14:56:01.413Z,53.50
2018-09-10T14:58:29.888Z,54.50
2018-09-10T15:00:58.508Z,54.40
2018-09-10T15:03:26.891Z,53.60
2018-09-10T15:05:55.413Z,53.30
2018-09-10T15:08:24.062Z,53.50
2018-09-10T15:10:52.467Z,53.50
2018-09-10T15:13:21.721Z,52.00
2018-09-10T15:15:50.914Z,52.00
2018-09-10T15:18:20.450Z,52.10
2018-09-10T15:20:49.756Z,51.90
2018-09-10T15:23:18.191Z,52.40
2018-09-10T15:25:46.711Z,53.30
2018-09-10T15:28:15.123Z,51.90
2018-09-10T15:30:43.612Z,52.40
2018-09-10T15:33:11.994Z,51.50
2018-09-10T15:35:40.377Z,52.80
2018-09-10T15:38:08.792Z,52.60
2018-09-10T15:40:37.318Z,52.70
2018-09-10T15:43:06.265Z,52.90
2018-09-10T15:45:34.765Z,53.80
2018-09-10T15:48:03.125Z,53.10
2018-09-10T15:50:31.674Z,53.60
2018-09-10T15:53:00.123Z,52.90
2018-09-10T15:55:28.547Z,53.50
2018-09-10T15:57:56.961Z,54.10
2018-09-10T16:00:25.447Z,54.40
2018-09-10T16:02:53.859Z,53.60
2018-09-10T16:05:22.277Z,53.00
2018-09-10T16:07:51.316Z,53.40
2018-09-10T16:10:19.807Z,54.70
2018-09-10T16:12:48.262Z,54.80
2018-09-10T16:15:16.766Z,54.50
2018-09-10T16:17:45.160Z,53.20
2018-09-10T16:20:13.584Z,54.50
2018-09-10T16:22:42.034Z,54.50
2018-09-10T16:25:10.533Z,54.60
2018-09-10T16:27:38.911Z,55.40
2018-09-10T16:30:07.830Z,55.50
2018-09-10T16:32:36.196Z,55.30
2018-09-10T16:35:05.009Z,53.70
2018-09-10T16:37:33.414Z,53.10
2018-09-10T16:40:01.943Z,53.80
2018-09-10T16:42:30.317Z,54.50
2018-09-10T16:44:58.796Z,54.30
2018-09-10T16:47:27.241Z,55.70
2018-09-10T16:49:55.696Z,56.20
2018-09-10T16:52:24.165Z,55.00
2018-09-10T16:54:52.628Z,55.80
2018-09-10T16:57:21.857Z,56.30
2018-09-10T16:59:51.111Z,56.00
2018-09-10T17:02:19.895Z,57.40
2018-09-10T17:04:48.270Z,56.70
2018-09-10T17:07:16.737Z,56.30
2018-09-10T17:09:45.157Z,55.60
2018-09-10T17:12:13.630Z,55.50
2018-09-10T17:14:42.193Z,57.40
2018-09-10T17:17:10.885Z,57.20
2018-09-10T17:19:39.654Z,57.70
2018-09-10T17:22:08.063Z,57.80
2018-09-10T17:24:36.536Z,59.00
2018-09-10T17:27:05.358Z,59.30
2018-09-10T17:29:33.840Z,59.30
2018-09-10T17:32:02.316Z,60.10
2018-09-10T17:34:30.702Z,59.60
2018-09-10T17:36:59.211Z,59.30
2018-09-10T17:39:27.639Z,60.00
2018-09-10T17:41:56.583Z,60.20
2018-09-10T17:44:25.006Z,60.70
2018-09-10T17:46:53.667Z,61.10
2018-09-10T17:49:22.219Z,61.30
2018-09-10T17:51:50.739Z,61.60
2018-09-10T17:54:19.107Z,61.70
2018-09-10T17:56:47.543Z,60.50
2018-09-10T17:59:15.920Z,61.80
2018-09-10T18:01:44.294Z,61.40
2018-09-10T18:04:12.702Z,61.50
2018-09-10T18:06:41.166Z,62.00
2018-09-10T18:09:10.691Z,60.70
2018-09-10T18:11:39.271Z,62.30
2018-09-10T18:14:08.099Z,63.80
2018-09-10T18:16:37.248Z,63.30
2018-09-10T18:19:06.066Z,62.70
2018-09-10T18:21:36.139Z,62.60
2018-09-10T18:24:05.117Z,62.70
2018-09-10T18:26:33.595Z,62.60
2018-09-10T18:29:02.052Z,62.70
2018-09-10T18:31:30.425Z,62.50
2018-09-10T18:33:58.805Z,62.90
2018-09-10T18:36:27.295Z,63.30
2018-09-10T18:38:55.689Z,63.20
2018-09-10T18:41:24.171Z,63.80
2018-09-10T18:43:52.586Z,64.40
2018-09-10T18:46:20.978Z,64.20
2018-09-10T18:48:49.413Z,63.90
2018-09-10T18:51:18.053Z,63.60
2018-09-10T18:53:46.454Z,64.30
2018-09-10T18:56:14.978Z,63.60
2018-09-10T18:58:43.357Z,64.10
2018-09-10T19:01:11.975Z,64.70
2018-09-10T19:03:40.415Z,64.40
2018-09-10T19:06:08.832Z,63.10
2018-09-10T19:08:37.867Z,63.10
2018-09-10T19:11:07.268Z,63.50
2018-09-10T19:13:36.086Z,63.50
2018-09-10T19:16:04.518Z,63.50
2018-09-10T19:18:39.676Z,63.80
2018-09-10T19:21:08.530Z,64.00
2018-09-10T19:23:39.065Z,64.60
2018-09-10T19:26:08.403Z,64.30
2018-09-10T19:28:37.555Z,64.00
2018-09-10T19:31:06.701Z,64.40
2018-09-10T19:33:36.130Z,64.80
2018-09-10T19:36:04.514Z,64.90
2018-09-10T19:38:33.026Z,66.70
2018-09-10T19:41:01.475Z,65.20
2018-09-10T19:43:29.855Z,64.60
2018-09-10T19:45:58.412Z,64.60
2018-09-10T19:48:26.812Z,65.60
2018-09-10T19:50:55.385Z,65.40
2018-09-10T19:53:23.888Z,64.50
2018-09-10T19:55:52.444Z,64.70
2018-09-10T19:58:20.874Z,65.00
2018-09-10T20:00:49.388Z,65.60
2018-09-10T20:03:17.787Z,66.20
2018-09-10T20:05:46.465Z,65.50
2018-09-10T20:08:14.931Z,63.90
2018-09-10T20:10:43.342Z,65.30
2018-09-10T20:13:11.716Z,65.30
2018-09-10T20:15:40.254Z,64.40
2018-09-10T20:18:08.628Z,65.40
2018-09-10T20:20:37.484Z,64.90
2018-09-10T20:23:06.862Z,65.90
2018-09-10T20:25:36.009Z,65.60
2018-09-10T20:28:04.506Z,67.10
2018-09-10T20:30:33.101Z,66.00
2018-09-10T20:33:01.749Z,65.10
2018-09-10T20:35:30.225Z,66.00
2018-09-10T20:37:58.766Z,65.20
2018-09-10T20:40:28.343Z,66.10
2018-09-10T20:42:56.874Z,66.20
2018-09-10T20:45:25.548Z,67.20
2018-09-10T20:47:53.947Z,64.40
2018-09-10T20:50:22.523Z,64.70
2018-09-10T20:52:51.031Z,65.40
2018-09-10T20:55:19.554Z,65.50
2018-09-10T20:57:48.007Z,65.30
2018-09-10T21:00:16.612Z,65.00
2018-09-10T21:02:45.084Z,65.50
2018-09-10T21:05:13.741Z,65.40
2018-09-10T21:07:42.337Z,66.40
2018-09-10T21:10:10.964Z,65.30
2018-09-10T21:12:39.432Z,66.40
2018-09-10T21:15:08.663Z,65.30
2018-09-10T21:17:38.344Z,65.10
2018-09-10T21:20:07.489Z,65.80
2018-09-10T21:22:36.130Z,65.30
2018-09-10T21:25:04.752Z,64.60
2018-09-10T21:27:33.183Z,64.60
2018-09-10T21:30:01.677Z,64.90
2018-09-10T21:32:30.122Z,64.90
2018-09-10T21:34:58.753Z,64.80
2018-09-10T21:37:27.255Z,64.30
2018-09-10T21:39:55.701Z,64.50
2018-09-10T21:42:24.182Z,64.80
2018-09-10T21:44:52.646Z,65.40
2018-09-10T21:47:21.149Z,65.10
2018-09-10T21:49:49.708Z,64.80
2018-09-10T21:52:18.215Z,64.90
2018-09-10T21:54:46.662Z,65.50
2018-09-10T21:57:15.131Z,66.00
2018-09-10T21:59:43.671Z,65.60
2018-09-10T22:02:12.105Z,64.90
2018-09-10T22:04:40.577Z,64.50
2018-09-10T22:07:08.985Z,64.50
2018-09-10T22:09:37.907Z,64.40
2018-09-10T22:12:07.641Z,64.30
2018-09-10T22:14:36.100Z,64.60
2018-09-10T22:17:04.503Z,64.50
2018-09-10T22:19:33.040Z,63.80
2018-09-10T22:22:01.806Z,63.40
2018-09-10T22:24:30.357Z,63.30
2018-09-10T22:26:59.016Z,64.20
2018-09-10T22:29:27.803Z,64.20
2018-09-10T22:31:56.295Z,63.30
2018-09-10T22:34:24.809Z,65.20
2018-09-10T22:36:53.303Z,65.00
2018-09-10T22:39:21.831Z,64.00
2018-09-10T22:41:50.348Z,64.90
2018-09-10T22:44:18.896Z,65.00
2018-09-10T22:46:47.510Z,65.10
2018-09-10T22:49:15.937Z,65.00
2018-09-10T22:51:44.453Z,65.30
2018-09-10T22:54:12.964Z,65.30
2018-09-10T22:56:41.452Z,66.50
2018-09-10T22:59:09.859Z,66.00
2018-09-10T23:01:38.386Z,65.40
2018-09-10T23:04:07.636Z,65.70
2018-09-10T23:06:36.177Z,66.10
2018-09-10T23:09:06.466Z,64.70
2018-09-10T23:11:35.740Z,65.20
2018-09-10T23:14:04.212Z,65.70
2018-09-10T23:16:32.703Z,66.00
2018-09-10T23:19:01.366Z,65.00
2018-09-10T23:21:29.858Z,65.00
2018-09-10T23:23:58.324Z,64.90
2018-09-10T23:26:26.763Z,65.40
2018-09-10T23:28:55.159Z,65.70
2018-09-10T23:31:23.622Z,65.60
2018-09-10T23:33:52.203Z,65.80
2018-09-10T23:36:20.639Z,65.60
2018-09-10T23:38:49.051Z,65.50
2018-09-10T23:41:17.490Z,66.40
2018-09-10T23:43:46.373Z,66.30
2018-09-10T23:46:14.962Z,65.60
2018-09-10T23:48:43.503Z,66.40
2018-09-10T23:51:11.951Z,66.50
2018-09-10T23:53:40.541Z,66.20
2018-09-10T23:56:08.986Z,66.80
2018-09-10T23:58:37.491Z,67.10
